Time;durP1;ratioP1;P1;durP2;ratioP2;P2;SDS_P1;SDS_P2;PMS_P1;PMS_P2;Temp;Humidity;BMP_temperature;BMP_pressure;BME280_temperature;BME280_humidity;BME280_pressure;Samples;Min_cycle;Max_cycle;Signal;HPM_P1;HPM_P2
2022/05/19 00:01:05;;;;;;;9.40;6.60;;;;;;;11.64;83.38;100651.13;5053075;28;20202;-62
2022/05/19 00:03:33;;;;;;;10.27;7.40;;;;;;;11.66;84.37;100651.16;5053239;28;20625;-63
2022/05/19 00:06:00;;;;;;;7.23;6.63;;;;;;;11.48;84.19;100627.44;5052428;28;20242;-63
2022/05/19 00:08:28;;;;;;;9.50;8.10;;;;;;;11.60;84.84;100653.53;5053116;28;20326;-63
2022/05/19 00:10:58;;;;;;;10.88;8.68;;;;;;;11.65;85.82;100657.13;5052097;28;20438;-63
2022/05/19 00:13:25;;;;;;;10.90;8.23;;;;;;;11.69;85.04;100652.16;5053522;28;20191;-61
2022/05/19 00:15:53;;;;;;;11.80;8.53;;;;;;;11.62;84.97;100657.91;5065943;28;20206;-63
2022/05/19 00:18:21;;;;;;;12.30;8.70;;;;;;;11.61;85.09;100660.44;5073210;28;20191;-63
2022/05/19 00:20:48;;;;;;;9.93;7.73;;;;;;;11.57;85.26;100658.59;5073088;28;20200;-63
2022/05/19 00:23:15;;;;;;;9.00;7.80;;;;;;;11.50;85.59;100662.69;5072985;28;20195;-63
2022/05/19 00:25:42;;;;;;;11.65;9.43;;;;;;;11.56;85.00;100665.47;5072039;28;20433;-63
2022/05/19 00:28:09;;;;;;;9.57;8.47;;;;;;;11.50;84.49;100654.09;5073000;28;20223;-63
2022/05/19 00:30:37;;;;;;;11.50;7.77;;;;;;;11.43;85.02;100663.31;5072792;28;20278;-63
2022/05/19 00:33:05;;;;;;;11.35;8.50;;;;;;;11.37;85.46;100654.53;5071885;28;20437;-61
2022/05/19 00:35:32;;;;;;;7.77;6.80;;;;;;;11.35;85.01;100662.19;5072788;28;20223;-61
2022/05/19 00:37:59;;;;;;;11.30;7.37;;;;;;;11.31;85.15;100649.19;5072637;28;20287;-63
2022/05/19 00:40:26;;;;;;;10.40;7.00;;;;;;;11.24;85.29;100650.69;5072482;28;20223;-61
2022/05/19 00:42:53;;;;;;;11.60;7.83;;;;;;;11.18;86.34;100650.47;5072417;28;20206;-63
2022/05/19 00:45:22;;;;;;;10.20;8.37;;;;;;;11.17;87.31;100654.78;5072598;28;20196;-61
2022/05/19 00:47:53;;;;;;;12.07;9.77;;;;;;;11.23;87.68;100649.81;5071760;28;21148;-61
2022/05/19 00:50:30;;;;;;;14.17;9.23;;;;;;;11.17;87.80;100652.22;5072441;28;20191;-63
2022/05/19 00:53:02;;;;;;;11.07;9.87;;;;;;;11.11;88.55;100656.28;5072333;28;20198;-63
2022/05/19 00:55:34;;;;;;;13.30;11.35;;;;;;;11.09;88.74;100653.66;5071664;28;20959;-63
2022/05/19 00:58:07;;;;;;;11.37;9.50;;;;;;;11.04;89.41;100654.34;5072222;28;20195;-63
2022/05/19 01:00:34;;;;;;;11.70;9.80;;;;;;;11.07;89.41;100654.44;5072375;28;20188;-63
2022/05/19 01:03:02;;;;;;;12.23;10.33;;;;;;;11.10;89.75;100650.25;5072026;28;20195;-61
2022/05/19 01:05:35;;;;;;;13.60;11.23;;;;;;;11.11;89.89;100652.00;5072235;28;20198;-61
2022/05/19 01:08:08;;;;;;;15.43;11.70;;;;;;;11.09;90.45;100653.66;5072037;28;20736;-63
2022/05/19 01:10:35;;;;;;;20.38;16.75;;;;;;;11.14;91.38;100646.97;5071205;28;20449;-63
2022/05/19 01:13:03;;;;;;;21.53;14.10;;;;;;;11.16;90.94;100652.13;5072310;28;20195;-63
2022/05/19 01:15:33;;;;;;;15.77;12.33;;;;;;;11.12;91.18;100643.44;5072008;28;20654;-62
2022/05/19 01:18:00;;;;;;;17.83;14.85;;;;;;;11.11;91.25;100646.84;5071356;28;20453;-63
2022/05/19 01:20:28;;;;;;;12.87;10.27;;;;;;;11.08;91.20;100640.72;5072155;28;20203;-61
2022/05/19 01:23:07;;;;;;;9.67;8.57;;;;;;;11.00;91.02;100644.75;5072008;28;20200;-63
2022/05/19 01:25:44;;;;;;;10.50;8.47;;;;;;;11.01;91.00;100644.81;5071893;28;20198;-63
2022/05/19 01:28:12;;;;;;;8.17;7.37;;;;;;;10.99;90.95;100645.56;5071998;28;20219;-61
2022/05/19 01:30:40;;;;;;;8.37;7.50;;;;;;;10.89;91.38;100640.94;5071827;28;20195;-63
2022/05/19 01:33:07;;;;;;;7.50;6.77;;;;;;;10.94;90.78;100647.13;5071826;28;20192;-61
2022/05/19 01:35:34;;;;;;;9.67;6.37;;;;;;;10.85;90.38;100641.69;5071629;28;20192;-63
2022/05/19 01:38:02;;;;;;;6.80;5.50;;;;;;;10.83;89.80;100643.31;5071519;28;20184;-61
2022/05/19 01:40:44;;;;;;;8.85;5.88;;;;;;;10.84;88.28;100645.97;5070929;28;20449;-63
2022/05/19 01:43:21;;;;;;;7.50;4.83;;;;;;;10.85;86.50;100642.53;5071410;28;20202;-63
2022/05/19 01:46:01;;;;;;;4.87;4.33;;;;;;;10.85;85.57;100632.25;5071268;28;20195;-62
2022/05/19 01:48:38;;;;;;;4.57;4.00;;;;;;;10.88;83.92;100644.34;5071229;28;20215;-61
2022/05/19 01:51:14;;;;;;;7.67;4.30;;;;;;;10.89;83.69;100644.41;5071318;28;20698;-63
2022/05/19 01:53:45;;;;;;;6.73;3.93;;;;;;;10.88;82.73;100629.78;5071353;28;20187;-62
2022/05/19 01:56:18;;;;;;;7.23;5.03;;;;;;;10.89;83.18;100640.94;5071116;28;20250;-62
2022/05/19 01:58:50;;;;;;;5.37;4.87;;;;;;;10.80;83.81;100640.63;5070882;28;20199;-62
2022/05/19 02:01:22;;;;;;;8.60;6.40;;;;;;;10.79;84.64;100639.78;5071040;28;20195;-61
2022/05/19 02:03:53;;;;;;;5.83;5.30;;;;;;;10.76;85.69;100642.25;5070900;28;20194;-62
2022/05/19 02:06:27;;;;;;;8.63;6.37;;;;;;;10.79;86.34;100646.63;5071092;28;20215;-62
2022/05/19 02:08:58;;;;;;;10.00;6.87;;;;;;;10.70;87.22;100642.03;5070711;28;20309;-61
2022/05/19 02:11:29;;;;;;;8.13;6.63;;;;;;;10.76;87.72;100642.25;5070876;28;20641;-62
2022/05/19 02:14:01;;;;;;;13.87;7.20;;;;;;;10.77;87.38;100645.72;5070912;28;20188;-62
2022/05/19 02:16:30;;;;;;;11.77;6.50;;;;;;;10.71;86.93;100643.81;5070130;28;20195;-62
2022/05/19 02:18:58;;;;;;;10.85;6.90;;;;;;;10.72;86.64;100639.50;5069832;28;20539;-62
2022/05/19 02:21:25;;;;;;;9.13;6.00;;;;;;;10.68;85.37;100646.25;5069371;28;20199;-61
2022/05/19 02:23:56;;;;;;;8.70;5.43;;;;;;;10.58;84.84;100639.91;5064598;28;20204;-62
2022/05/19 02:26:22;;;;;;;7.90;6.10;;;;;;;10.49;84.44;100641.31;5069141;28;20449;-63
2022/05/19 02:28:54;;;;;;;6.27;5.40;;;;;;;10.48;84.49;100639.56;5069126;28;20211;-57
2022/05/19 02:31:22;;;;;;;7.17;4.80;;;;;;;10.46;84.18;100643.78;5066684;28;20575;-56
2022/05/19 02:33:49;;;;;;;7.93;5.30;;;;;;;10.41;84.10;100642.75;5069990;28;20196;-57
2022/05/19 02:36:16;;;;;;;6.37;5.57;;;;;;;10.45;84.99;100649.72;5069341;28;20191;-57
2022/05/19 02:38:43;;;;;;;8.93;5.47;;;;;;;10.37;85.44;100646.00;5069662;28;20231;-57
2022/05/19 02:41:10;;;;;;;7.95;6.35;;;;;;;10.39;86.20;100642.66;5069662;28;20467;-57
2022/05/19 02:43:37;;;;;;;6.27;5.17;;;;;;;10.41;85.78;100650.44;5070395;28;20195;-57
2022/05/19 02:46:04;;;;;;;7.27;5.53;;;;;;;10.43;85.86;100641.09;5070026;28;20203;-57
2022/05/19 02:48:33;;;;;;;7.60;5.10;;;;;;;10.44;86.01;100643.69;5069732;28;20457;-57
2022/05/19 02:51:00;;;;;;;5.80;4.57;;;;;;;10.43;85.68;100648.81;5070003;28;20203;-57
2022/05/19 02:53:27;;;;;;;6.17;5.10;;;;;;;10.43;86.14;100646.22;5069984;28;20735;-57
2022/05/19 02:55:54;;;;;;;6.30;5.10;;;;;;;10.42;86.26;100647.03;5070363;28;20209;-57
2022/05/19 02:58:21;;;;;;;6.13;4.60;;;;;;;10.43;85.98;100656.50;5069946;28;20188;-57
2022/05/19 03:00:50;;;;;;;5.80;4.43;;;;;;;10.41;86.16;100660.72;5070194;28;20195;-57
2022/05/19 03:03:17;;;;;;;5.05;4.53;;;;;;;10.40;85.87;100662.41;5069659;28;20448;-57
2022/05/19 03:05:45;;;;;;;6.40;4.87;;;;;;;10.43;86.16;100662.53;5070079;28;21040;-57
2022/05/19 03:08:12;;;;;;;7.20;4.00;;;;;;;10.44;85.58;100659.13;5070108;28;20219;-57
2022/05/19 03:10:41;;;;;;;4.70;4.20;;;;;;;10.25;85.15;100620.75;5069734;28;20437;-57
2022/05/19 03:13:15;;;;;;;4.93;3.63;;;;;;;10.53;84.75;100661.13;5070135;28;20202;-57
2022/05/19 03:15:42;;;;;;;6.23;3.90;;;;;;;10.65;84.32;100659.00;5069833;28;20200;-57
2022/05/19 03:18:08;;;;;;;4.27;3.93;;;;;;;10.74;84.15;100653.31;5069793;28;20195;-57
2022/05/19 03:20:35;;;;;;;6.80;4.50;;;;;;;10.80;83.77;100662.09;5069811;28;20199;-56
2022/05/19 03:23:03;;;;;;;8.70;4.30;;;;;;;10.89;83.54;100666.66;5070115;28;20214;-57
2022/05/19 03:25:30;;;;;;;5.90;4.35;;;;;;;10.95;83.27;100672.03;5069769;28;20464;-56
2022/05/19 03:27:57;;;;;;;5.30;4.80;;;;;;;11.01;82.67;100669.66;5069854;28;20204;-57
2022/05/19 03:30:24;;;;;;;5.20;4.70;;;;;;;11.01;83.24;100672.22;5069840;28;20662;-57
2022/05/19 03:32:51;;;;;;;6.10;4.03;;;;;;;11.03;82.41;100675.72;5071809;28;20191;-57
2022/05/19 03:35:18;;;;;;;6.10;4.50;;;;;;;11.01;82.00;100677.38;5073929;28;20189;-57
2022/05/19 03:37:46;;;;;;;4.80;4.30;;;;;;;10.92;81.64;100684.78;5073411;28;20192;-57
2022/05/19 03:40:17;;;;;;;5.57;4.47;;;;;;;10.94;81.22;100680.53;5073308;28;20219;-57
2022/05/19 03:42:44;;;;;;;6.73;4.43;;;;;;;11.00;81.28;100684.22;5073536;28;20252;-57
2022/05/19 03:45:11;;;;;;;5.87;4.53;;;;;;;10.97;81.15;100671.25;5073455;28;20191;-57
2022/05/19 03:47:39;;;;;;;5.17;4.07;;;;;;;11.04;80.63;100680.06;5073649;28;20222;-57
2022/05/19 03:50:07;;;;;;;4.13;3.23;;;;;;;10.98;79.25;100675.56;5073475;28;20215;-57
2022/05/19 03:52:38;;;;;;;4.27;3.80;;;;;;;10.94;79.40;100683.13;5073466;28;20199;-55
2022/05/19 03:55:06;;;;;;;4.80;3.77;;;;;;;10.97;79.72;100684.09;5073311;28;20191;-57
2022/05/19 03:57:34;;;;;;;5.68;4.45;;;;;;;11.11;79.59;100680.28;5072269;28;20445;-57
2022/05/19 04:00:01;;;;;;;3.90;3.57;;;;;;;11.21;77.67;100684.91;5073000;28;20188;-57
2022/05/19 04:02:28;;;;;;;6.87;3.70;;;;;;;11.26;77.17;100691.06;5073008;28;20191;-57
2022/05/19 04:04:55;;;;;;;3.93;3.63;;;;;;;11.17;77.18;100692.47;5072204;28;20206;-57
2022/05/19 04:07:22;;;;;;;6.67;3.60;;;;;;;11.18;77.50;100689.94;5072879;28;20196;-57
2022/05/19 04:09:49;;;;;;;5.00;3.50;;;;;;;11.09;77.13;100686.22;5068059;28;20215;-57
2022/05/19 04:12:19;;;;;;;7.27;4.00;;;;;;;11.15;77.64;100696.72;5069652;28;20678;-57
2022/05/19 04:14:48;;;;;;;4.13;3.73;;;;;;;11.23;77.33;100690.13;5072215;28;20192;-56
2022/05/19 04:17:15;;;;;;;6.33;3.73;;;;;;;11.28;77.46;100701.44;5072268;28;20207;-56
2022/05/19 04:19:42;;;;;;;4.57;3.87;;;;;;;11.37;76.43;100691.41;5068123;28;20441;-57
2022/05/19 04:22:09;;;;;;;4.97;3.93;;;;;;;11.50;75.47;100692.69;5072651;28;20582;-57
2022/05/19 04:24:36;;;;;;;3.90;3.60;;;;;;;11.55;75.53;100689.44;5072371;28;20209;-56
2022/05/19 04:27:03;;;;;;;5.67;3.10;;;;;;;11.70;74.52;100691.66;5072721;28;20191;-56
2022/05/19 04:29:30;;;;;;;5.77;3.97;;;;;;;11.84;76.58;100687.78;5072389;28;20653;-56
2022/05/19 04:31:58;;;;;;;5.80;4.00;;;;;;;11.89;75.71;100693.97;5072293;28;20191;-56
2022/05/19 04:34:25;;;;;;;6.93;3.60;;;;;;;11.97;75.30;100700.22;5071198;28;20449;-56
2022/05/19 04:36:52;;;;;;;4.10;3.70;;;;;;;11.94;74.31;100702.69;5072012;28;20581;-56
2022/05/19 04:39:19;;;;;;;5.87;4.00;;;;;;;11.81;74.38;100705.75;5072153;28;20235;-56
2022/05/19 04:41:46;;;;;;;6.10;4.22;;;;;;;11.88;76.67;100687.06;5071907;28;20448;-56
2022/05/19 04:44:15;;;;;;;6.73;3.30;;;;;;;11.89;74.88;100688.81;5071436;28;20199;-56
2022/05/19 04:46:42;;;;;;;7.07;3.83;;;;;;;11.96;75.22;100690.72;5072363;28;20551;-56
2022/05/19 04:49:10;;;;;;;4.90;3.67;;;;;;;12.03;74.78;100692.66;5072120;28;20694;-56
2022/05/19 04:51:37;;;;;;;11.03;8.37;;;;;;;12.11;75.24;100696.34;5071861;28;20191;-56
2022/05/19 04:54:04;;;;;;;10.43;8.17;;;;;;;12.13;75.04;100692.09;5071908;28;20662;-56
2022/05/19 04:56:30;;;;;;;5.73;3.70;;;;;;;12.11;74.84;100693.78;5071998;28;20204;-57
2022/05/19 04:58:58;;;;;;;3.90;3.30;;;;;;;12.11;74.88;100704.06;5071907;28;20191;-57
2022/05/19 05:01:24;;;;;;;3.97;3.53;;;;;;;12.19;75.89;100693.97;5072003;28;20211;-57
2022/05/19 05:03:51;;;;;;;6.03;2.97;;;;;;;12.27;75.11;100707.97;5071709;28;20196;-56
2022/05/19 05:06:20;;;;;;;4.40;3.30;;;;;;;12.28;74.74;100695.09;5071783;28;20191;-57
2022/05/19 05:08:46;;;;;;;8.57;3.03;;;;;;;12.49;74.22;100704.28;5071526;28;20219;-57
2022/05/19 05:11:13;;;;;;;8.95;5.03;;;;;;;12.53;74.05;100706.97;5071313;28;20421;-62
2022/05/19 05:13:40;;;;;;;6.10;4.07;;;;;;;12.64;73.49;100715.00;5071245;28;20188;-57
2022/05/19 05:16:07;;;;;;;4.53;3.00;;;;;;;12.54;71.76;100682.06;5071502;28;20192;-57
2022/05/19 05:18:34;;;;;;;4.55;2.78;;;;;;;12.70;71.28;100717.75;5070461;28;20445;-57
2022/05/19 05:21:04;;;;;;;2.73;2.53;;;;;;;12.83;71.03;100712.09;5071351;28;20213;-57
2022/05/19 05:23:32;;;;;;;7.77;3.00;;;;;;;12.86;70.33;100717.31;5071140;28;20199;-56
2022/05/19 05:26:01;;;;;;;6.90;3.07;;;;;;;13.03;71.28;100721.22;5070396;28;20887;-57
2022/05/19 05:28:28;;;;;;;6.73;2.93;;;;;;;13.15;69.42;100710.38;5071063;28;20192;-57
2022/05/19 05:30:54;;;;;;;4.43;3.10;;;;;;;13.26;69.46;100711.53;5070887;28;20785;-57
2022/05/19 05:33:21;;;;;;;2.93;2.70;;;;;;;13.27;69.20;100715.84;5070913;28;20198;-57
2022/05/19 05:35:48;;;;;;;3.40;2.30;;;;;;;13.33;68.89;100719.47;5071136;28;20570;-58
2022/05/19 05:38:15;;;;;;;4.60;2.50;;;;;;;13.52;67.65;100715.59;5070673;28;20207;-57
2022/05/19 05:40:43;;;;;;;5.68;3.13;;;;;;;13.59;67.08;100726.13;5069835;28;20517;-58
2022/05/19 05:43:12;;;;;;;2.83;2.63;;;;;;;13.64;66.66;100709.88;5070801;28;20195;-57
2022/05/19 05:45:40;;;;;;;4.40;3.00;;;;;;;13.81;65.67;100716.28;5069877;28;20191;-57
2022/05/19 05:48:08;;;;;;;5.65;2.72;;;;;;;13.75;64.73;100716.16;5068281;28;21637;-58
2022/05/19 05:50:35;;;;;;;3.20;2.37;;;;;;;13.82;65.22;100712.84;5070338;28;20622;-58
2022/05/19 05:53:02;;;;;;;2.87;2.57;;;;;;;13.87;65.93;100716.44;5066988;28;20201;-57
2022/05/19 05:55:28;;;;;;;6.73;2.90;;;;;;;13.99;64.48;100707.22;5067794;28;21050;-57
2022/05/19 05:57:57;;;;;;;3.03;2.43;;;;;;;14.08;64.18;100707.44;5070738;28;20204;-58
2022/05/19 06:00:25;;;;;;;5.53;3.30;;;;;;;14.24;64.69;100705.16;5070486;28;20264;-58
2022/05/19 06:02:52;;;;;;;4.17;3.13;;;;;;;14.40;64.26;100704.66;5070414;28;20198;-56
2022/05/19 06:05:19;;;;;;;2.60;2.03;;;;;;;14.45;61.52;100709.09;5068049;28;21494;-57
2022/05/19 06:07:46;;;;;;;4.13;2.37;;;;;;;14.37;62.17;100710.66;5067721;28;20195;-58
2022/05/19 06:10:14;;;;;;;5.15;2.60;;;;;;;14.32;63.13;100701.94;5069181;28;20527;-57
2022/05/19 06:12:41;;;;;;;3.93;2.60;;;;;;;14.44;63.35;100711.66;5069815;28;20595;-57
2022/05/19 06:15:12;;;;;;;3.60;2.30;;;;;;;14.39;62.44;100708.13;5069990;28;20189;-57
2022/05/19 06:17:40;;;;;;;5.07;2.63;;;;;;;14.32;63.01;100711.41;5069633;28;20201;-57
2022/05/19 06:20:10;;;;;;;5.40;2.60;;;;;;;14.32;63.47;100708.81;5070066;28;20282;-58
2022/05/19 06:22:37;;;;;;;2.50;2.17;;;;;;;14.32;64.60;100709.69;5070492;28;20198;-58
2022/05/19 06:25:05;;;;;;;3.58;2.72;;;;;;;14.41;63.53;100715.06;5069997;28;20502;-61
2022/05/19 06:27:32;;;;;;;3.43;2.40;;;;;;;14.55;63.96;100710.16;5070121;28;20774;-63
2022/05/19 06:29:58;;;;;;;3.20;2.50;;;;;;;14.68;64.20;100697.50;5070083;28;20312;-62
2022/05/19 06:32:27;;;;;;;3.75;2.83;;;;;;;14.83;64.58;100702.09;5069844;28;20935;-61
2022/05/19 06:34:54;;;;;;;3.07;2.37;;;;;;;14.95;63.43;100712.63;5069629;28;20198;-62
2022/05/19 06:37:20;;;;;;;3.73;2.50;;;;;;;15.00;63.23;100708.41;5069595;28;20205;-62
2022/05/19 06:39:48;;;;;;;4.23;2.80;;;;;;;15.08;63.62;100711.16;5069392;28;20227;-62
2022/05/19 06:42:15;;;;;;;4.13;2.80;;;;;;;15.16;63.27;100704.41;5069839;28;20299;-63
2022/05/19 06:44:44;;;;;;;5.65;2.40;;;;;;;15.30;63.03;100715.81;5069775;28;20487;-62
2022/05/19 06:47:14;;;;;;;4.70;2.50;;;;;;;15.34;62.33;100704.69;5069581;28;20201;-63
2022/05/19 06:49:43;;;;;;;2.40;2.20;;;;;;;15.42;61.52;100705.69;5069873;28;20637;-58
2022/05/19 06:52:13;;;;;;;6.93;3.13;;;;;;;15.48;61.84;100712.72;5070140;28;20192;-58
2022/05/19 06:54:40;;;;;;;6.23;2.60;;;;;;;15.45;62.14;100712.63;5069865;28;20198;-58
2022/05/19 06:57:07;;;;;;;2.53;2.30;;;;;;;15.51;60.42;100708.47;5069698;28;20211;-58
2022/05/19 06:59:34;;;;;;;3.23;2.27;;;;;;;15.60;60.02;100721.53;5069643;28;20199;-58
2022/05/19 07:02:01;;;;;;;2.90;2.43;;;;;;;15.75;60.18;100711.41;5069286;28;20203;-58
2022/05/19 07:04:28;;;;;;;4.47;2.47;;;;;;;15.94;58.86;100717.72;5069586;28;20194;-62
2022/05/19 07:06:56;;;;;;;6.47;2.83;;;;;;;16.04;58.65;100710.97;5068915;28;20205;-63
2022/05/19 07:09:23;;;;;;;4.33;2.57;;;;;;;16.15;58.50;100707.66;5068984;28;20219;-64
2022/05/19 07:11:49;;;;;;;7.77;2.50;;;;;;;16.24;58.38;100706.91;5069359;28;20194;-63
2022/05/19 07:14:17;;;;;;;8.07;2.63;;;;;;;16.39;57.11;100701.91;5069343;28;20570;-62
2022/05/19 07:16:46;;;;;;;5.85;2.60;;;;;;;16.55;56.99;100709.06;5068452;28;20876;-61
2022/05/19 07:21:59;;;;;;;4.93;2.13;;;;;;;16.68;52.44;100704.84;5069240;28;20731;-63
2022/05/19 07:24:26;;;;;;;4.07;2.10;;;;;;;16.72;53.06;100702.34;5064225;28;20314;-62
2022/05/19 07:26:54;;;;;;;3.50;1.90;;;;;;;16.83;53.47;100703.31;5066903;28;20209;-62
2022/05/19 07:29:22;;;;;;;4.20;2.00;;;;;;;16.66;54.30;100681.50;5068913;28;20261;-58
2022/05/19 07:31:50;;;;;;;4.63;1.98;;;;;;;16.95;54.18;100710.34;5068374;28;20438;-57
2022/05/19 07:34:20;;;;;;;6.70;1.97;;;;;;;17.01;52.66;100710.41;5068972;28;20194;-58
2022/05/19 07:36:48;;;;;;;3.30;2.10;;;;;;;17.16;52.74;100705.38;5069152;28;20280;-58
2022/05/19 07:39:16;;;;;;;5.37;2.90;;;;;;;17.25;51.93;100699.38;5069233;28;20227;-58
2022/05/19 07:41:43;;;;;;;2.88;1.85;;;;;;;17.25;51.18;100699.38;5069004;28;20782;-57
2022/05/19 07:44:11;;;;;;;3.90;2.30;;;;;;;17.41;52.06;100696.03;5069186;28;20191;-57
2022/05/19 07:46:38;;;;;;;6.60;2.27;;;;;;;17.57;51.92;100693.59;5069061;28;20191;-62
2022/05/19 07:49:05;;;;;;;2.90;2.43;;;;;;;17.64;51.58;100691.91;5069166;28;20199;-62
2022/05/19 07:51:36;;;;;;;5.57;2.40;;;;;;;17.78;51.31;100689.38;5069326;28;20192;-62
2022/05/19 07:54:04;;;;;;;11.00;2.20;;;;;;;17.91;50.34;100689.47;5068966;28;20294;-62
2022/05/19 07:56:35;;;;;;;2.50;1.88;;;;;;;18.00;47.76;100694.72;5068188;28;20873;-62
2022/05/19 07:59:04;;;;;;;3.23;1.67;;;;;;;18.12;47.15;100696.53;5068971;28;20253;-61
2022/05/19 08:01:31;;;;;;;5.07;2.40;;;;;;;18.17;46.11;100698.28;5068768;28;20666;-62
2022/05/19 08:03:59;;;;;;;2.23;2.03;;;;;;;18.26;46.48;100693.16;5068782;28;20187;-65
2022/05/19 08:06:28;;;;;;;5.32;2.08;;;;;;;18.35;44.43;100688.84;5066290;28;20870;-57
2022/05/19 08:08:55;;;;;;;2.83;1.90;;;;;;;18.48;43.46;100694.13;5062810;28;20200;-62
2022/05/19 08:11:23;;;;;;;1.87;1.77;;;;;;;18.49;44.09;100694.97;5068883;28;20223;-63
2022/05/19 08:16:41;;;;;;;5.20;2.30;;;;;;;18.54;42.58;100699.31;5029715;28;20298;-62
2022/05/19 08:19:09;;;;;;;2.93;1.60;;;;;;;18.43;42.13;100700.13;5066508;28;20211;-63
2022/05/19 08:21:37;;;;;;;5.13;1.90;;;;;;;18.44;41.83;100697.53;5070080;28;20444;-62
2022/05/19 08:24:04;;;;;;;2.00;1.60;;;;;;;18.60;41.34;100690.66;5072447;28;20195;-62
2022/05/19 08:26:31;;;;;;;5.00;2.10;;;;;;;18.71;43.22;100694.16;5072241;28;20589;-62
2022/05/19 08:28:59;;;;;;;3.47;2.03;;;;;;;18.77;42.85;100688.97;5071374;28;20436;-62
2022/05/19 08:31:26;;;;;;;3.67;2.10;;;;;;;18.87;41.29;100690.72;5072063;28;20211;-62
2022/05/19 08:33:54;;;;;;;2.53;1.87;;;;;;;18.89;41.17;100688.13;5072089;28;20195;-62
2022/05/19 08:36:21;;;;;;;2.70;1.80;;;;;;;18.96;40.04;100692.47;5071372;28;20278;-62
2022/05/19 08:38:48;;;;;;;4.23;2.40;;;;;;;18.99;40.65;100682.94;5071848;28;20300;-63
2022/05/19 08:41:25;;;;;;;5.33;2.23;;;;;;;19.10;41.10;100694.25;5072094;28;20666;-63
2022/05/19 08:43:57;;;;;;;1.83;1.73;;;;;;;19.13;39.68;100681.22;5072233;28;20195;-62
2022/05/19 08:46:30;;;;;;;2.13;1.93;;;;;;;19.23;40.16;100688.16;5071962;28;20253;-61
2022/05/19 08:49:03;;;;;;;4.37;2.13;;;;;;;19.21;39.16;100681.22;5071695;28;20708;-63
2022/05/19 08:51:33;;;;;;;4.57;1.87;;;;;;;19.25;34.73;100691.66;5070872;28;20449;-63
2022/05/19 08:54:05;;;;;;;2.03;1.70;;;;;;;19.32;35.19;100688.16;5072533;28;20475;-62
2022/05/19 08:56:36;;;;;;;3.60;1.87;;;;;;;19.37;34.79;100689.03;5071630;28;20693;-62
2022/05/19 08:59:14;;;;;;;5.67;1.60;;;;;;;19.42;34.57;100686.44;5071759;28;20286;-62
2022/05/19 09:01:45;;;;;;;6.82;1.70;;;;;;;19.59;35.61;100684.69;5071880;28;21140;-62
2022/05/19 09:04:29;;;;;;;2.70;1.80;;;;;;;19.67;33.15;100689.91;5071738;28;20207;-62
2022/05/19 09:10:05;;;;;;;1.87;1.70;;;;;;;19.58;33.50;100675.16;5071329;28;20712;-63
2022/05/19 09:12:37;;;;;;;2.30;1.57;;;;;;;19.75;33.83;100678.59;5071218;28;20192;-62
2022/05/19 09:15:05;;;;;;;2.87;1.70;;;;;;;19.88;33.99;100680.31;5071583;28;20194;-61
2022/05/19 09:17:37;;;;;;;4.77;1.70;;;;;;;19.82;33.96;100674.22;5071102;28;20199;-62
2022/05/19 09:20:09;;;;;;;2.07;1.87;;;;;;;19.90;33.22;100668.13;5071335;28;20192;-61
2022/05/19 09:22:36;;;;;;;4.93;2.13;;;;;;;20.01;32.13;100660.25;5070952;28;20309;-61
2022/05/19 09:25:06;;;;;;;3.75;1.75;;;;;;;20.07;31.65;100669.81;5070506;28;20446;-61
2022/05/19 09:27:36;;;;;;;2.43;1.70;;;;;;;20.16;32.08;100657.59;5071437;28;20195;-62
2022/05/19 09:30:03;;;;;;;3.70;2.03;;;;;;;20.28;32.93;100649.75;5069618;28;21041;-62
2022/05/19 09:32:34;;;;;;;4.00;3.30;;;;;;;20.46;32.97;100644.41;5070895;28;20203;-62
2022/05/19 09:35:07;;;;;;;2.10;1.60;;;;;;;20.69;33.06;100646.03;5068652;28;20570;-63
2022/05/19 09:37:42;;;;;;;1.80;1.70;;;;;;;20.80;31.61;100649.44;5070328;28;20203;-61
2022/05/19 09:40:23;;;;;;;3.73;2.33;;;;;;;20.69;31.83;100635.56;5070402;28;20226;-63
2022/05/19 09:42:54;;;;;;;3.33;2.03;;;;;;;20.77;32.03;100639.00;5071018;28;20268;-64
2022/05/19 09:45:22;;;;;;;3.80;2.17;;;;;;;20.73;32.75;100622.50;5070879;28;20638;-64
2022/05/19 09:47:53;;;;;;;3.00;1.70;;;;;;;20.65;31.56;100626.03;5070777;28;20214;-63
2022/05/19 09:50:24;;;;;;;4.20;1.90;;;;;;;20.63;33.00;100628.66;5060059;28;20254;-63
2022/05/19 09:52:51;;;;;;;1.50;1.40;;;;;;;20.61;32.28;100617.34;5050413;28;20195;-63
2022/05/19 09:55:24;;;;;;;2.28;1.90;;;;;;;20.66;31.78;100627.78;5050084;28;20439;-62
2022/05/19 09:57:56;;;;;;;2.27;2.07;;;;;;;20.68;31.79;100615.59;5050437;28;20192;-63
2022/05/19 10:00:32;;;;;;;1.70;1.60;;;;;;;20.65;31.90;100620.81;5050271;28;20195;-63
2022/05/19 10:03:02;;;;;;;7.00;2.47;;;;;;;20.73;32.80;100624.25;5050041;28;20253;-62
2022/05/19 10:05:40;;;;;;;2.93;1.80;;;;;;;20.53;32.80;100613.94;5050413;28;20287;-56
2022/05/19 10:08:14;;;;;;;2.03;1.83;;;;;;;20.48;31.91;100616.56;5050440;28;20249;-58
2022/05/19 10:10:49;;;;;;;3.78;2.20;;;;;;;20.29;32.77;100603.63;5049207;28;20455;-57
2022/05/19 10:13:17;;;;;;;1.73;1.60;;;;;;;20.30;32.64;100611.44;5050201;28;20246;-58
2022/05/19 10:15:59;;;;;;;3.63;2.07;;;;;;;20.56;33.38;100604.34;5050029;28;20276;-58
2022/05/19 10:18:44;;;;;;;2.30;2.10;;;;;;;20.67;32.43;100601.66;5052463;28;20200;-57
2022/05/19 10:21:24;;;;;;;6.57;1.83;;;;;;;20.65;32.84;100582.50;5066875;28;20214;-58
2022/05/19 10:24:10;;;;;;;2.83;1.83;;;;;;;20.44;32.52;100527.81;5069493;28;20729;-57
2022/05/19 10:26:46;;;;;;;2.07;1.87;;;;;;;20.90;32.28;100593.66;5067391;28;20305;-57
2022/05/19 10:32:45;;;;;;;5.43;2.17;;;;;;;21.20;32.86;100575.13;5067952;28;20210;-57
2022/05/19 10:35:20;;;;;;;3.83;2.58;;;;;;;21.32;32.54;100592.41;5065185;28;20430;-58
2022/05/19 10:38:02;;;;;;;4.00;1.87;;;;;;;21.40;32.62;100578.38;5068905;28;20191;-58
2022/05/19 10:40:50;;;;;;;4.07;2.77;;;;;;;21.39;32.01;100578.41;5068970;28;20227;-58
2022/05/19 10:43:29;;;;;;;4.70;2.13;;;;;;;21.58;32.85;100567.72;5067252;28;20915;-58
2022/05/19 10:46:01;;;;;;;2.23;1.90;;;;;;;21.76;32.59;100564.88;5069506;28;20609;-58
2022/05/19 10:48:53;;;;;;;2.83;2.10;;;;;;;21.82;32.86;100561.31;5069240;28;20657;-58
2022/05/19 10:51:35;;;;;;;2.27;2.07;;;;;;;21.99;31.70;100556.78;5068825;28;20221;-58
2022/05/19 10:54:23;;;;;;;2.40;2.00;;;;;;;22.06;32.03;100550.56;5068975;28;20195;-62
2022/05/19 10:57:08;;;;;;;3.97;2.60;;;;;;;22.24;32.32;100554.69;5068919;28;20536;-63
2022/05/19 10:59:48;;;;;;;1.93;1.73;;;;;;;22.33;31.42;100554.56;5069368;28;20203;-63
2022/05/19 11:02:43;;;;;;;2.97;2.10;;;;;;;22.31;31.03;100554.56;5069250;28;20187;-62
2022/05/19 11:05:22;;;;;;;4.18;2.40;;;;;;;22.24;30.61;100547.72;5068290;28;20437;-63
2022/05/19 11:08:01;;;;;;;3.57;1.50;;;;;;;22.14;31.31;100553.09;5069441;28;20689;-57
2022/05/19 11:10:38;;;;;;;2.07;1.50;;;;;;;22.09;30.57;100541.81;5069471;28;20222;-56
2022/05/19 11:13:19;;;;;;;1.67;1.57;;;;;;;22.01;30.75;100538.44;5069270;28;20194;-57
2022/05/19 11:15:50;;;;;;;2.00;1.77;;;;;;;21.82;30.92;100536.91;5065551;28;20232;-56
2022/05/19 11:18:22;;;;;;;3.00;2.10;;;;;;;21.73;32.29;100514.34;5066691;28;20195;-56
2022/05/19 11:21:01;;;;;;;3.50;2.13;;;;;;;21.98;32.77;100528.00;5068209;28;20964;-56
2022/05/19 11:23:37;;;;;;;6.07;2.00;;;;;;;22.08;31.70;100529.63;5069118;28;20187;-57
2022/05/19 11:26:23;;;;;;;2.57;2.20;;;;;;;22.03;31.63;100526.22;5049278;28;20681;-57
2022/05/19 11:29:13;;;;;;;3.80;3.00;;;;;;;22.05;31.62;100521.81;5049114;28;20203;-56
2022/05/19 11:31:46;;;;;;;2.17;1.97;;;;;;;22.06;31.43;100515.66;5048831;28;20228;-57
2022/05/19 11:34:21;;;;;;;2.97;2.67;;;;;;;22.25;32.70;100512.75;5049093;28;20254;-58
2022/05/19 11:36:54;;;;;;;3.03;2.00;;;;;;;22.54;31.79;100516.69;5048283;28;20500;-57
2022/05/19 11:39:28;;;;;;;6.77;2.50;;;;;;;22.48;30.75;100514.16;5048742;28;20247;-57
2022/05/19 11:42:01;;;;;;;2.83;1.80;;;;;;;22.38;30.49;100504.72;5048966;28;20192;-57
2022/05/19 11:44:32;;;;;;;9.50;3.30;;;;;;;22.58;31.97;100500.06;5048984;28;20192;-58
2022/05/19 11:47:03;;;;;;;2.10;1.90;;;;;;;22.79;30.50;100500.59;5049092;28;20212;-59
2022/05/19 11:55:20;;;;;;;4.27;2.20;;;;;;;23.21;29.99;100490.22;5072759;28;20692;-57